Time;durP1;ratioP1;P1;durP2;ratioP2;P2;SDS_P1;SDS_P2;PMS_P1;PMS_P2;Temp;Humidity;BMP_temperature;BMP_pressure;BME280_temperature;BME280_humidity;BME280_pressure;Samples;Min_cycle;Max_cycle;Signal;HPM_P1;HPM_P2
2023/04/13 00:00:34;;;;;;;1.30;1.20;;;19.40;44.20;;;;;;5014293;28;20799;-68
2023/04/13 00:03:00;;;;;;;1.20;1.10;;;19.40;44.20;;;;;;5011636;28;20816;-69
2023/04/13 00:05:27;;;;;;;1.30;1.20;;;19.40;44.20;;;;;;5014283;28;20479;-69
2023/04/13 00:07:53;;;;;;;1.43;1.33;;;19.40;44.20;;;;;;5011484;28;20484;-69
2023/04/13 00:10:20;;;;;;;1.10;0.97;;;19.40;44.20;;;;;;5013998;28;20466;-69
2023/04/13 00:12:49;;;;;;;1.10;0.97;;;19.40;44.20;;;;;;5015251;28;20578;-69
2023/04/13 00:15:16;;;;;;;1.30;1.20;;;19.40;44.20;;;;;;5010394;28;20449;-68
2023/04/13 00:17:42;;;;;;;1.13;1.03;;;19.40;44.20;;;;;;5012308;28;20450;-68
2023/04/13 00:20:12;;;;;;;1.10;1.00;;;19.40;44.20;;;;;;5016673;28;20446;-69
2023/04/13 00:22:39;;;;;;;1.07;0.97;;;19.40;44.20;;;;;;5010786;28;20452;-69
2023/04/13 00:25:05;;;;;;;1.17;1.07;;;19.40;44.10;;;;;;5015135;28;20435;-69
2023/04/13 00:27:31;;;;;;;1.60;1.30;;;19.40;44.20;;;;;;5016545;28;20507;-69
2023/04/13 00:29:56;;;;;;;0.90;0.90;;;19.40;44.20;;;;;;5014055;28;20441;-69
2023/04/13 00:32:23;;;;;;;1.10;1.00;;;19.40;44.20;;;;;;5016671;28;20527;-69
2023/04/13 00:34:49;;;;;;;1.27;1.17;;;19.40;44.20;;;;;;5016212;28;20742;-69
2023/04/13 00:37:14;;;;;;;2.70;1.43;;;19.40;44.20;;;;;;5015232;28;20448;-69
2023/04/13 00:39:42;;;;;;;0.80;0.80;;;19.40;44.20;;;;;;5008495;28;20222;-68
2023/04/13 00:42:08;;;;;;;1.00;0.90;;;19.40;44.20;;;;;;5017539;28;20297;-69
2023/04/13 00:44:34;;;;;;;1.20;1.10;;;19.40;44.20;;;;;;5018235;28;20418;-66
2023/04/13 00:47:03;;;;;;;1.93;1.00;;;19.40;44.20;;;;;;5019957;28;20457;-68
2023/04/13 00:49:30;;;;;;;0.90;0.83;;;19.40;44.20;;;;;;5012337;28;20471;-69
2023/04/13 00:51:55;;;;;;;1.20;1.10;;;19.40;44.20;;;;;;5017202;28;20433;-69
2023/04/13 00:54:22;;;;;;;1.10;1.00;;;19.40;44.20;;;;;;5019039;28;20794;-67
2023/04/13 00:56:49;;;;;;;1.20;0.90;;;19.40;44.20;;;;;;5015047;28;20222;-69
2023/04/13 00:59:16;;;;;;;1.13;1.03;;;19.40;44.20;;;;;;5021094;28;20858;-68
2023/04/13 01:01:45;;;;;;;1.47;0.90;;;19.40;44.20;;;;;;5013984;28;20467;-69
2023/04/13 01:04:17;;;;;;;1.30;1.20;;;19.40;44.20;;;;;;5015678;28;20226;-68
2023/04/13 01:06:48;;;;;;;1.23;1.00;;;19.40;44.10;;;;;;5015378;28;20430;-69
2023/04/13 01:09:20;;;;;;;0.80;0.80;;;19.40;44.20;;;;;;5020896;28;20454;-69
2023/04/13 01:12:03;;;;;;;0.87;0.83;;;19.40;44.20;;;;;;5014391;28;20426;-68
2023/04/13 01:14:46;;;;;;;1.10;0.93;;;19.40;44.20;;;;;;5016817;28;20461;-68
2023/04/13 01:17:23;;;;;;;0.97;0.87;;;19.40;44.20;;;;;;5013010;28;20845;-67
2023/04/13 01:19:55;;;;;;;0.97;0.87;;;19.40;44.20;;;;;;5016430;28;20450;-69
2023/04/13 01:22:26;;;;;;;0.90;0.90;;;19.40;44.20;;;;;;5018705;28;20438;-69
2023/04/13 01:25:33;;;;;;;1.60;1.03;;;19.40;44.20;;;;;;5017642;28;20443;-70
2023/04/13 01:28:04;;;;;;;1.17;0.97;;;19.40;44.20;;;;;;5016422;28;20821;-69
2023/04/13 01:30:31;;;;;;;1.07;0.97;;;19.40;44.20;;;;;;5015099;28;21031;-67
2023/04/13 01:32:58;;;;;;;1.37;0.90;;;19.40;44.90;;;;;;5016292;28;20492;-70
2023/04/13 01:35:25;;;;;;;0.90;0.90;;;19.40;44.20;;;;;;5021907;28;20506;-69
2023/04/13 01:37:52;;;;;;;1.40;1.07;;;19.40;44.20;;;;;;5017929;28;21158;-69
2023/04/13 01:40:20;;;;;;;1.47;0.90;;;19.40;44.20;;;;;;5012421;28;20443;-67
2023/04/13 01:42:46;;;;;;;1.10;0.90;;;19.40;44.20;;;;;;5020323;28;20478;-69
2023/04/13 01:45:17;;;;;;;1.00;0.90;;;19.40;44.20;;;;;;5024253;28;20438;-69
2023/04/13 01:47:53;;;;;;;0.80;0.80;;;19.40;44.20;;;;;;5021001;28;20230;-68
2023/04/13 01:50:25;;;;;;;1.10;1.00;;;19.40;44.20;;;;;;5017143;28;20430;-67
2023/04/13 01:53:00;;;;;;;1.93;0.80;;;19.40;44.20;;;;;;5017347;28;20512;-69
2023/04/13 01:55:27;;;;;;;0.90;0.80;;;19.40;44.20;;;;;;5016346;28;20423;-69
2023/04/13 01:57:55;;;;;;;0.83;0.80;;;19.40;44.20;;;;;;5021971;28;20446;-69
2023/04/13 02:00:21;;;;;;;0.83;0.83;;;19.40;44.20;;;;;;5018042;28;20471;-68
2023/04/13 02:02:47;;;;;;;0.97;0.90;;;19.40;44.20;;;;;;5012996;28;20450;-70
2023/04/13 02:05:13;;;;;;;0.90;0.77;;;19.40;44.20;;;;;;5015614;28;20552;-69
2023/04/13 02:07:41;;;;;;;1.00;0.90;;;19.40;44.20;;;;;;5013704;28;20447;-69
2023/04/13 02:10:07;;;;;;;2.23;0.90;;;19.40;44.20;;;;;;5018108;28;20824;-69
2023/04/13 02:12:33;;;;;;;0.83;0.83;;;19.40;44.20;;;;;;5003539;28;20466;-68
2023/04/13 02:15:00;;;;;;;0.70;0.70;;;19.40;44.20;;;;;;5017651;28;20313;-69
2023/04/13 02:17:28;;;;;;;1.10;0.90;;;19.40;44.20;;;;;;5021322;28;20555;-70
2023/04/13 02:19:58;;;;;;;0.90;0.80;;;19.40;44.20;;;;;;5034597;28;21603;-69
2023/04/13 02:22:24;;;;;;;1.00;0.77;;;19.40;44.20;;;;;;5019552;28;20477;-70
2023/04/13 02:24:50;;;;;;;1.27;0.80;;;19.40;44.20;;;;;;5018165;28;20522;-70
2023/04/13 02:27:16;;;;;;;1.00;0.90;;;19.30;44.10;;;;;;5022252;28;20581;-69
2023/04/13 02:29:42;;;;;;;0.80;0.80;;;19.40;44.20;;;;;;5027458;28;20973;-68
2023/04/13 02:32:08;;;;;;;0.80;0.80;;;19.40;44.10;;;;;;5021587;28;20415;-70
2023/04/13 02:34:34;;;;;;;0.90;0.77;;;19.40;44.20;;;;;;5019313;28;20452;-69
2023/04/13 02:36:59;;;;;;;0.77;0.70;;;19.40;44.20;;;;;;5019545;28;20230;-69
2023/04/13 02:39:25;;;;;;;0.90;0.77;;;19.40;44.20;;;;;;5021313;28;20818;-69
2023/04/13 02:41:50;;;;;;;0.70;0.70;;;19.30;44.50;;;;;;5019568;28;20322;-69
2023/04/13 02:44:16;;;;;;;1.20;0.80;;;19.40;44.20;;;;;;5022234;28;20740;-69
2023/04/13 02:46:42;;;;;;;1.50;0.83;;;19.40;44.20;;;;;;5020020;28;20543;-70
2023/04/13 02:49:08;;;;;;;0.70;0.70;;;19.30;44.10;;;;;;5019796;28;20577;-69
2023/04/13 02:51:34;;;;;;;0.80;0.70;;;19.30;44.80;;;;;;5015235;28;21017;-68
2023/04/13 02:54:03;;;;;;;0.80;0.80;;;19.40;44.20;;;;;;5019683;28;20968;-69
2023/04/13 02:56:29;;;;;;;0.97;0.80;;;19.30;44.10;;;;;;5017146;28;20233;-67
2023/04/13 02:58:56;;;;;;;0.80;0.80;;;19.40;44.30;;;;;;5021657;28;20430;-70
2023/04/13 03:01:23;;;;;;;1.63;0.80;;;19.30;44.10;;;;;;5017283;28;20484;-70
2023/04/13 03:03:49;;;;;;;1.00;0.70;;;19.40;44.20;;;;;;5021138;28;20429;-69
2023/04/13 03:06:15;;;;;;;1.10;0.70;;;19.30;44.00;;;;;;5016468;28;20435;-69
2023/04/13 03:08:40;;;;;;;0.97;0.73;;;19.30;44.10;;;;;;5021449;28;20324;-69
2023/04/13 03:11:08;;;;;;;0.83;0.80;;;19.30;44.10;;;;;;5016613;28;20219;-70
2023/04/13 03:13:33;;;;;;;1.17;0.90;;;19.30;44.10;;;;;;5017560;28;20245;-69
2023/04/13 03:15:59;;;;;;;0.80;0.80;;;19.30;44.80;;;;;;5017766;28;20911;-69
2023/04/13 03:18:26;;;;;;;0.90;0.80;;;19.30;44.10;;;;;;5019310;28;20414;-69
2023/04/13 03:20:52;;;;;;;1.10;0.80;;;19.40;44.20;;;;;;5019254;28;20594;-68
2023/04/13 03:23:18;;;;;;;0.80;0.70;;;19.30;44.10;;;;;;5017646;28;21062;-69
2023/04/13 03:25:44;;;;;;;0.80;0.80;;;19.30;44.10;;;;;;5016767;28;20439;-70
2023/04/13 03:28:10;;;;;;;0.93;0.80;;;19.30;44.10;;;;;;5017330;28;20820;-70
2023/04/13 03:30:36;;;;;;;1.20;0.80;;;19.30;44.10;;;;;;5017394;28;20291;-68
2023/04/13 03:33:01;;;;;;;1.03;0.70;;;19.40;44.20;;;;;;5016779;28;20221;-70
2023/04/13 03:35:27;;;;;;;1.00;0.70;;;19.30;44.10;;;;;;5019474;28;20223;-70
2023/04/13 03:37:53;;;;;;;0.90;0.70;;;19.40;44.20;;;;;;5018008;28;20704;-70
2023/04/13 03:40:18;;;;;;;1.07;0.90;;;19.30;44.10;;;;;;5020051;28;20219;-70
2023/04/13 03:42:44;;;;;;;0.80;0.70;;;19.30;44.10;;;;;;5015591;28;20757;-70
2023/04/13 03:45:11;;;;;;;0.80;0.67;;;19.30;44.10;;;;;;5013653;28;20318;-70
2023/04/13 03:47:38;;;;;;;0.70;0.60;;;19.30;44.10;;;;;;5017323;28;20435;-69
2023/04/13 03:50:04;;;;;;;0.77;0.60;;;19.30;44.80;;;;;;5016189;28;20922;-70
2023/04/13 03:52:30;;;;;;;0.70;0.70;;;19.30;44.10;;;;;;5020197;28;20476;-70
2023/04/13 03:54:55;;;;;;;0.70;0.60;;;19.30;44.10;;;;;;5016392;28;20418;-69
2023/04/13 03:57:24;;;;;;;1.90;0.90;;;19.30;44.10;;;;;;5022755;28;21167;-69
2023/04/13 03:59:50;;;;;;;0.83;0.67;;;19.40;44.10;;;;;;5020744;28;20227;-68
2023/04/13 04:02:15;;;;;;;0.60;0.60;;;19.30;44.10;;;;;;5011951;28;20521;-68
2023/04/13 04:04:41;;;;;;;0.90;0.70;;;19.30;44.10;;;;;;5013528;28;20442;-69
2023/04/13 04:07:07;;;;;;;0.90;0.53;;;19.30;44.00;;;;;;5019074;28;20230;-69
2023/04/13 04:09:33;;;;;;;0.70;0.70;;;19.30;44.10;;;;;;5018729;28;20789;-68
2023/04/13 04:11:59;;;;;;;0.80;0.80;;;19.30;44.10;;;;;;5015084;28;20761;-68
2023/04/13 04:14:24;;;;;;;0.90;0.80;;;19.30;44.10;;;;;;5011891;28;20234;-68
2023/04/13 04:16:50;;;;;;;0.70;0.60;;;19.30;44.10;;;;;;5019084;28;20460;-68
2023/04/13 04:19:15;;;;;;;0.80;0.70;;;19.30;44.10;;;;;;5019488;28;20264;-70
2023/04/13 04:21:43;;;;;;;0.90;0.70;;;19.30;44.10;;;;;;5019820;28;20295;-70
2023/04/13 04:24:11;;;;;;;0.70;0.70;;;19.30;44.10;;;;;;5017794;28;20231;-70
2023/04/13 04:26:37;;;;;;;1.37;0.70;;;19.30;44.10;;;;;;5017875;28;21229;-71
2023/04/13 04:29:02;;;;;;;0.70;0.60;;;19.40;44.20;;;;;;5020312;28;20470;-70
2023/04/13 04:31:33;;;;;;;0.90;0.70;;;19.40;44.10;;;;;;5014831;28;20223;-71
2023/04/13 04:34:02;;;;;;;0.70;0.60;;;19.40;44.20;;;;;;5013284;28;20219;-69
2023/04/13 04:36:27;;;;;;;0.60;0.60;;;19.40;44.20;;;;;;5016855;28;20496;-69
2023/04/13 04:38:56;;;;;;;0.80;0.70;;;19.40;44.20;;;;;;5012021;28;20469;-69
2023/04/13 04:41:23;;;;;;;0.77;0.77;;;19.50;44.20;;;;;;5010723;28;20245;-69
2023/04/13 04:43:49;;;;;;;2.20;0.70;;;19.40;44.20;;;;;;5011624;28;20463;-68
2023/04/13 04:46:15;;;;;;;0.97;0.70;;;19.50;44.20;;;;;;5015741;28;21008;-68
2023/04/13 04:48:41;;;;;;;0.70;0.60;;;19.50;44.20;;;;;;5014736;28;20230;-68
2023/04/13 04:51:10;;;;;;;1.20;0.70;;;19.50;44.20;;;;;;5015459;28;20963;-68
2023/04/13 04:53:36;;;;;;;0.80;0.70;;;19.50;44.20;;;;;;5019093;28;20225;-67
2023/04/13 04:56:01;;;;;;;0.83;0.70;;;19.50;44.20;;;;;;5018430;28;20786;-68
2023/04/13 04:58:27;;;;;;;0.70;0.60;;;19.50;44.20;;;;;;5017821;28;20219;-68
2023/04/13 05:00:52;;;;;;;0.70;0.60;;;19.50;44.20;;;;;;5019475;28;20223;-68
2023/04/13 05:03:19;;;;;;;0.70;0.60;;;19.50;44.20;;;;;;5018260;28;20214;-68
2023/04/13 05:05:45;;;;;;;0.90;0.60;;;19.50;44.20;;;;;;5018739;28;20237;-68
2023/04/13 05:08:10;;;;;;;0.60;0.50;;;19.50;44.20;;;;;;5019817;28;21137;-68
2023/04/13 05:10:42;;;;;;;0.70;0.60;;;19.50;44.20;;;;;;5017727;28;20631;-68
2023/04/13 05:13:08;;;;;;;0.93;0.60;;;19.40;44.10;;;;;;5015858;28;20227;-67
2023/04/13 05:15:33;;;;;;;0.97;0.87;;;19.50;44.20;;;;;;5014293;28;20827;-68
2023/04/13 05:17:59;;;;;;;0.70;0.60;;;19.50;44.20;;;;;;5014271;28;20235;-68
2023/04/13 05:20:26;;;;;;;0.70;0.60;;;19.40;44.20;;;;;;5011366;28;20223;-68
2023/04/13 05:22:52;;;;;;;0.90;0.83;;;19.50;44.20;;;;;;5015899;28;20218;-69
2023/04/13 05:25:18;;;;;;;0.60;0.60;;;19.40;44.10;;;;;;5018784;28;20558;-69
2023/04/13 05:27:43;;;;;;;1.00;0.60;;;19.40;44.20;;;;;;5014159;28;20714;-70
2023/04/13 05:30:09;;;;;;;0.77;0.60;;;19.40;44.20;;;;;;5011967;28;20223;-69
2023/04/13 05:32:35;;;;;;;0.67;0.60;;;19.40;44.10;;;;;;5017083;28;20587;-69
2023/04/13 05:35:00;;;;;;;1.00;0.60;;;19.40;44.20;;;;;;5018508;28;20825;-69
2023/04/13 05:37:26;;;;;;;0.80;0.70;;;19.40;44.10;;;;;;5005278;28;20231;-68
2023/04/13 05:39:52;;;;;;;1.23;0.70;;;19.40;44.20;;;;;;5011416;28;20229;-68
2023/04/13 05:42:17;;;;;;;0.80;0.60;;;19.40;44.20;;;;;;5017613;28;20227;-68
2023/04/13 05:44:43;;;;;;;1.67;0.60;;;19.40;44.20;;;;;;5017289;28;20461;-68
2023/04/13 05:47:08;;;;;;;0.83;0.60;;;19.40;44.20;;;;;;5014122;28;20214;-68
2023/04/13 05:49:35;;;;;;;0.80;0.70;;;19.40;44.20;;;;;;5018655;28;20748;-68
2023/04/13 05:52:00;;;;;;;0.80;0.70;;;19.40;44.10;;;;;;5014821;28;20235;-69
2023/04/13 05:54:26;;;;;;;1.37;0.63;;;19.40;44.20;;;;;;5018631;28;20446;-69
2023/04/13 05:56:51;;;;;;;0.90;0.70;;;19.40;44.20;;;;;;5017521;28;20235;-68
2023/04/13 05:59:17;;;;;;;0.70;0.60;;;19.40;44.20;;;;;;5015930;28;20227;-69
2023/04/13 06:01:43;;;;;;;0.80;0.70;;;19.40;44.20;;;;;;5015639;28;20330;-68
2023/04/13 06:04:10;;;;;;;0.90;0.70;;;19.40;44.20;;;;;;5013125;28;20431;-69
2023/04/13 06:06:36;;;;;;;1.37;1.10;;;19.40;44.10;;;;;;5019805;28;20697;-68
2023/04/13 06:09:04;;;;;;;0.70;0.60;;;19.40;44.10;;;;;;5016512;28;20962;-69
2023/04/13 06:11:30;;;;;;;0.90;0.70;;;19.50;44.20;;;;;;5011731;28;20472;-68
2023/04/13 06:13:55;;;;;;;0.70;0.60;;;19.50;44.20;;;;;;5018036;28;20442;-69
2023/04/13 06:16:22;;;;;;;0.80;0.70;;;19.40;44.20;;;;;;5018555;28;20231;-68
2023/04/13 06:18:47;;;;;;;1.00;0.70;;;19.40;44.10;;;;;;5021714;28;20214;-69
2023/04/13 06:21:13;;;;;;;0.60;0.60;;;19.40;44.20;;;;;;5016512;28;20539;-69
2023/04/13 06:23:38;;;;;;;0.70;0.60;;;19.40;44.20;;;;;;5020952;28;20215;-69
2023/04/13 06:26:04;;;;;;;1.00;0.70;;;19.40;44.20;;;;;;5018847;28;20227;-69
2023/04/13 06:28:30;;;;;;;0.90;0.70;;;19.40;44.20;;;;;;5016471;28;20238;-69
2023/04/13 06:30:56;;;;;;;0.80;0.73;;;19.40;44.20;;;;;;5012774;28;20268;-69
2023/04/13 06:33:25;;;;;;;0.70;0.57;;;19.40;44.20;;;;;;5018164;28;20442;-71
2023/04/13 06:35:51;;;;;;;1.10;0.70;;;19.40;44.20;;;;;;5014061;28;20238;-69
2023/04/13 06:38:17;;;;;;;1.43;0.60;;;19.40;44.20;;;;;;5016599;28;20469;-68
2023/04/13 06:40:42;;;;;;;1.67;0.60;;;19.40;44.10;;;;;;5011362;28;20316;-68
2023/04/13 06:43:08;;;;;;;1.20;0.50;;;19.40;44.20;;;;;;5013603;28;20518;-68
2023/04/13 06:45:33;;;;;;;1.00;0.70;;;19.40;44.20;;;;;;5022043;28;20230;-68
2023/04/13 06:47:59;;;;;;;0.70;0.60;;;19.40;44.20;;;;;;5021112;28;20759;-68
2023/04/13 06:50:25;;;;;;;0.80;0.60;;;19.40;44.20;;;;;;5017235;28;20225;-68
2023/04/13 06:52:50;;;;;;;0.67;0.60;;;19.40;44.20;;;;;;5006214;28;20235;-68
2023/04/13 06:55:16;;;;;;;0.80;0.70;;;19.40;44.10;;;;;;5018035;28;20230;-68
2023/04/13 06:57:42;;;;;;;0.70;0.60;;;19.40;44.20;;;;;;5018944;28;20269;-68
2023/04/13 07:00:09;;;;;;;0.67;0.50;;;19.40;44.20;;;;;;5016152;28;20231;-68
2023/04/13 07:02:35;;;;;;;0.67;0.60;;;19.40;44.20;;;;;;5013164;28;20529;-68
2023/04/13 07:05:01;;;;;;;0.80;0.63;;;19.40;44.20;;;;;;5013464;28;21204;-68
2023/04/13 07:07:27;;;;;;;0.80;0.80;;;19.40;44.20;;;;;;5009842;28;20242;-69
2023/04/13 07:09:53;;;;;;;0.80;0.73;;;19.40;44.20;;;;;;5018166;28;20249;-68
2023/04/13 07:12:18;;;;;;;0.73;0.60;;;19.40;44.20;;;;;;5019720;28;20439;-68
2023/04/13 07:14:47;;;;;;;0.70;0.60;;;19.40;44.20;;;;;;5016365;28;20250;-68
2023/04/13 07:17:13;;;;;;;0.90;0.60;;;19.40;44.20;;;;;;5019829;28;20277;-68
2023/04/13 07:19:42;;;;;;;0.83;0.83;;;19.40;44.20;;;;;;5020731;28;20434;-68
2023/04/13 07:22:08;;;;;;;0.80;0.70;;;19.40;44.20;;;;;;5016332;28;21135;-68
2023/04/13 07:24:34;;;;;;;0.67;0.60;;;19.40;44.20;;;;;;5018006;28;20506;-68
2023/04/13 07:27:00;;;;;;;0.70;0.70;;;19.40;44.20;;;;;;5020219;28;20272;-68
2023/04/13 07:29:26;;;;;;;1.03;0.50;;;19.40;44.30;;;;;;5017373;28;20423;-68
2023/04/13 07:31:51;;;;;;;0.60;0.60;;;19.40;44.20;;;;;;5017401;28;20559;-68
2023/04/13 07:34:17;;;;;;;1.47;0.60;;;19.40;44.20;;;;;;5016977;28;20227;-68
2023/04/13 07:36:43;;;;;;;0.70;0.60;;;19.40;44.20;;;;;;5020623;28;20281;-68
2023/04/13 07:39:10;;;;;;;0.60;0.50;;;19.40;44.20;;;;;;5014549;28;20443;-68
2023/04/13 07:41:36;;;;;;;0.70;0.60;;;19.40;44.20;;;;;;5021735;28;20505;-67
2023/04/13 07:44:03;;;;;;;1.17;0.80;;;19.40;44.20;;;;;;5017268;28;20431;-68
2023/04/13 07:46:29;;;;;;;0.80;0.67;;;19.40;44.20;;;;;;5020100;28;20486;-69
2023/04/13 07:48:55;;;;;;;0.70;0.60;;;19.50;44.20;;;;;;5019747;28;20479;-68
2023/04/13 07:51:21;;;;;;;1.07;0.70;;;19.40;44.20;;;;;;5021264;28;20239;-68
2023/04/13 07:53:47;;;;;;;0.83;0.60;;;19.50;44.30;;;;;;5015759;28;20831;-68
2023/04/13 07:56:13;;;;;;;0.70;0.50;;;19.40;44.10;;;;;;5014106;28;20456;-68
2023/04/13 07:58:38;;;;;;;0.80;0.60;;;19.40;44.20;;;;;;5017677;28;20353;-68
2023/04/13 08:01:04;;;;;;;0.90;0.70;;;19.40;44.20;;;;;;5017866;28;20506;-68
2023/04/13 08:03:34;;;;;;;0.80;0.60;;;19.40;44.20;;;;;;5019973;28;20222;-68
2023/04/13 08:05:59;;;;;;;0.93;0.60;;;19.50;44.20;;;;;;5017323;28;20667;-68
2023/04/13 08:08:25;;;;;;;0.60;0.60;;;19.40;44.20;;;;;;5019052;28;20446;-69
2023/04/13 08:10:51;;;;;;;0.70;0.70;;;19.40;44.20;;;;;;5017148;28;20224;-68
2023/04/13 08:13:17;;;;;;;0.90;0.80;;;19.40;44.10;;;;;;5010814;28;20237;-68
2023/04/13 08:15:43;;;;;;;0.70;0.60;;;19.50;44.20;;;;;;5014733;28;21011;-68
2023/04/13 08:18:08;;;;;;;1.17;0.70;;;19.40;44.20;;;;;;5012828;28;20997;-68
2023/04/13 08:20:34;;;;;;;0.80;0.70;;;19.40;44.20;;;;;;5019932;28;20226;-69
2023/04/13 08:23:00;;;;;;;0.77;0.60;;;19.40;44.20;;;;;;5021661;28;20669;-69
2023/04/13 08:25:27;;;;;;;0.90;0.80;;;19.40;44.20;;;;;;5015684;28;20210;-68
2023/04/13 08:27:53;;;;;;;1.83;0.70;;;19.40;44.20;;;;;;5016212;28;20677;-68
2023/04/13 08:30:18;;;;;;;0.70;0.60;;;19.40;44.20;;;;;;5014801;28;20435;-69
2023/04/13 08:32:44;;;;;;;0.80;0.70;;;19.40;44.20;;;;;;5015843;28;21023;-68
2023/04/13 08:35:10;;;;;;;0.87;0.60;;;19.40;44.20;;;;;;5015569;28;20227;-68
2023/04/13 08:37:38;;;;;;;0.70;0.50;;;19.40;44.20;;;;;;5016950;28;20305;-68
2023/04/13 08:40:06;;;;;;;0.70;0.60;;;19.40;44.20;;;;;;5016749;28;20443;-68
2023/04/13 08:42:33;;;;;;;0.70;0.60;;;19.40;44.20;;;;;;5014396;28;20421;-69
2023/04/13 08:44:59;;;;;;;0.80;0.70;;;19.40;44.20;;;;;;5014504;28;20977;-69
2023/04/13 08:47:27;;;;;;;1.57;0.90;;;19.40;44.20;;;;;;5016868;28;20493;-68
2023/04/13 08:50:00;;;;;;;1.13;0.70;;;19.40;44.20;;;;;;5017157;28;20434;-68
2023/04/13 08:52:27;;;;;;;0.70;0.60;;;19.40;44.20;;;;;;5016701;28;20990;-69
2023/04/13 08:54:54;;;;;;;0.70;0.60;;;19.40;44.20;;;;;;5016626;28;20434;-69
2023/04/13 08:57:21;;;;;;;1.10;0.90;;;19.40;44.20;;;;;;5022976;28;20454;-68
2023/04/13 08:59:50;;;;;;;1.00;0.70;;;19.40;44.20;;;;;;5016755;28;20495;-68
2023/04/13 09:02:19;;;;;;;0.80;0.63;;;19.40;44.20;;;;;;5016820;28;20450;-69
2023/04/13 09:04:49;;;;;;;3.73;0.80;;;19.40;44.10;;;;;;5013723;28;21014;-68
2023/04/13 09:07:25;;;;;;;0.70;0.60;;;19.40;44.20;;;;;;5017338;28;20469;-69
2023/04/13 09:09:59;;;;;;;0.70;0.60;;;19.40;44.20;;;;;;5015743;28;20445;-68
2023/04/13 09:12:26;;;;;;;0.70;0.60;;;19.40;44.20;;;;;;5016777;28;20433;-69
2023/04/13 09:14:52;;;;;;;0.63;0.60;;;19.40;44.20;;;;;;5019049;28;20434;-69
2023/04/13 09:17:29;;;;;;;0.70;0.60;;;19.40;44.20;;;;;;5016051;28;20527;-69
2023/04/13 09:19:58;;;;;;;0.63;0.63;;;19.40;44.20;;;;;;5015265;28;20772;-68
2023/04/13 09:22:27;;;;;;;0.73;0.67;;;19.40;44.90;;;;;;5016832;28;20586;-69
2023/04/13 09:24:53;;;;;;;1.00;0.80;;;19.40;44.10;;;;;;5008771;28;20442;-69
2023/04/13 09:27:19;;;;;;;0.90;0.80;;;19.40;44.20;;;;;;5014486;28;20469;-68
2023/04/13 09:29:49;;;;;;;0.87;0.60;;;19.40;44.20;;;;;;5018683;28;20275;-68
2023/04/13 09:32:19;;;;;;;1.93;0.60;;;19.40;44.10;;;;;;5015904;28;20438;-69
2023/04/13 09:34:55;;;;;;;0.60;0.60;;;19.40;44.10;;;;;;5016053;28;20465;-68
2023/04/13 09:37:21;;;;;;;1.03;0.70;;;19.40;44.20;;;;;;5016018;28;21189;-68
2023/04/13 09:39:46;;;;;;;0.80;0.60;;;19.40;44.20;;;;;;5019514;28;20468;-68
2023/04/13 09:42:14;;;;;;;0.77;0.70;;;19.40;44.30;;;;;;5020726;28;20317;-68
2023/04/13 09:44:39;;;;;;;1.10;0.57;;;19.40;44.20;;;;;;5021182;28;20652;-68
2023/04/13 09:47:08;;;;;;;1.00;0.60;;;19.40;44.20;;;;;;5021685;28;20510;-68
2023/04/13 09:49:38;;;;;;;1.00;0.70;;;19.40;44.20;;;;;;5020747;28;20259;-69
2023/04/13 09:52:06;;;;;;;0.70;0.60;;;19.40;44.20;;;;;;5020845;28;20466;-69
2023/04/13 09:54:32;;;;;;;1.73;0.80;;;19.40;44.20;;;;;;5018164;28;20457;-69
2023/04/13 09:56:58;;;;;;;0.80;0.60;;;19.40;44.20;;;;;;5012897;28;20780;-69
2023/04/13 09:59:26;;;;;;;0.80;0.60;;;19.40;44.20;;;;;;5021404;28;20434;-69
2023/04/13 10:01:53;;;;;;;0.60;0.60;;;19.40;44.20;;;;;;5022112;28;20502;-69
2023/04/13 10:04:19;;;;;;;1.50;0.80;;;19.40;44.20;;;;;;5026632;28;20898;-69
2023/04/13 10:06:47;;;;;;;1.10;0.80;;;19.40;44.20;;;;;;5021031;28;20452;-69
2023/04/13 10:09:13;;;;;;;0.80;0.70;;;19.40;44.20;;;;;;5019511;28;20319;-69
2023/04/13 10:11:50;;;;;;;0.80;0.60;;;19.40;44.20;;;;;;5020768;28;20426;-68
2023/04/13 10:14:20;;;;;;;1.13;0.77;;;19.40;44.20;;;;;;5012505;28;20528;-68
2023/04/13 10:17:36;;;;;;;0.70;0.70;;;19.40;44.20;;;;;;5017282;28;20461;-69
2023/04/13 10:20:11;;;;;;;0.70;0.60;;;19.40;44.10;;;;;;4991378;28;20551;-69
2023/04/13 10:22:39;;;;;;;0.70;0.70;;;19.40;44.20;;;;;;5015732;28;20434;-69
2023/04/13 10:25:06;;;;;;;0.80;0.60;;;19.40;44.10;;;;;;5016358;28;20461;-68
2023/04/13 10:27:32;;;;;;;0.70;0.60;;;19.40;44.10;;;;;;5020711;28;20434;-69
2023/04/13 10:29:59;;;;;;;0.80;0.60;;;19.40;44.20;;;;;;5020759;28;20504;-69
2023/04/13 10:32:26;;;;;;;0.80;0.80;;;19.40;44.20;;;;;;5021291;28;20426;-69
2023/04/13 10:34:53;;;;;;;1.30;0.70;;;19.40;44.20;;;;;;5015493;28;20438;-69
2023/04/13 10:37:27;;;;;;;0.80;0.60;;;19.40;44.90;;;;;;5019933;28;20480;-69
2023/04/13 10:40:06;;;;;;;1.80;0.63;;;19.40;44.20;;;;;;5017726;28;20477;-69
2023/04/13 10:42:41;;;;;;;0.63;0.60;;;19.40;44.10;;;;;;5017242;28;20819;-69
2023/04/13 10:45:16;;;;;;;1.00;0.73;;;19.40;44.20;;;;;;5017310;28;21020;-69
2023/04/13 10:47:42;;;;;;;0.90;0.70;;;19.40;44.20;;;;;;5008668;28;20435;-68
2023/04/13 10:50:16;;;;;;;0.70;0.70;;;19.40;44.20;;;;;;5012251;28;21393;-69
2023/04/13 10:52:59;;;;;;;0.63;0.60;;;19.40;44.20;;;;;;5020530;28;20238;-69
2023/04/13 10:55:26;;;;;;;0.80;0.80;;;19.40;44.20;;;;;;5017971;28;20477;-69
2023/04/13 10:57:57;;;;;;;2.67;1.17;;;19.40;44.20;;;;;;5023102;28;20460;-69
2023/04/13 11:00:24;;;;;;;1.47;0.63;;;19.40;44.20;;;;;;5020110;28;20452;-69
2023/04/13 11:02:52;;;;;;;1.00;0.90;;;19.40;44.20;;;;;;5020606;28;20431;-70
2023/04/13 11:05:21;;;;;;;0.83;0.70;;;19.40;44.20;;;;;;5016746;28;21051;-69
2023/04/13 11:07:51;;;;;;;1.00;0.90;;;19.40;44.20;;;;;;5015457;28;20434;-68
2023/04/13 11:10:34;;;;;;;1.27;0.90;;;19.40;44.20;;;;;;5017652;28;20534;-67
2023/04/13 11:13:00;;;;;;;0.77;0.60;;;19.40;44.20;;;;;;5013768;28;20463;-68
2023/04/13 11:15:29;;;;;;;0.70;0.60;;;19.40;44.10;;;;;;5023110;28;20449;-68
2023/04/13 11:17:59;;;;;;;0.80;0.77;;;19.40;44.20;;;;;;5019811;28;20456;-68
2023/04/13 11:20:32;;;;;;;0.90;0.80;;;19.40;44.20;;;;;;5017161;28;20469;-68
2023/04/13 11:23:01;;;;;;;1.37;0.70;;;19.40;44.10;;;;;;5015524;28;21449;-67
2023/04/13 11:25:27;;;;;;;0.70;0.70;;;19.40;44.20;;;;;;5020278;28;21220;-70
2023/04/13 11:28:00;;;;;;;1.00;0.90;;;19.40;44.20;;;;;;4988989;28;20970;-68
2023/04/13 11:30:26;;;;;;;0.90;0.70;;;19.40;44.20;;;;;;5012793;28;20441;-68
2023/04/13 11:32:53;;;;;;;1.10;0.90;;;19.40;44.20;;;;;;5013638;28;20442;-69
2023/04/13 11:35:21;;;;;;;0.80;0.70;;;19.40;44.20;;;;;;5018293;28;20470;-69
2023/04/13 11:37:51;;;;;;;0.60;0.50;;;19.40;44.20;;;;;;5019763;28;20466;-69
2023/04/13 11:40:21;;;;;;;0.80;0.67;;;19.40;44.20;;;;;;5020163;28;20543;-68
2023/04/13 11:42:50;;;;;;;0.80;0.63;;;19.40;44.20;;;;;;5019642;28;20464;-69
2023/04/13 11:45:16;;;;;;;0.63;0.60;;;19.40;44.20;;;;;;5019576;28;20474;-69
2023/04/13 11:47:42;;;;;;;0.97;0.80;;;19.40;44.20;;;;;;5016582;28;20520;-68
2023/04/13 11:50:09;;;;;;;1.00;0.60;;;19.40;44.20;;;;;;5019512;28;20465;-69
2023/04/13 11:52:35;;;;;;;1.17;0.70;;;19.40;44.20;;;;;;5018067;28;20465;-68
2023/04/13 11:55:05;;;;;;;1.00;0.60;;;19.40;44.10;;;;;;5016286;28;20926;-69
2023/04/13 11:57:34;;;;;;;0.67;0.63;;;19.40;44.10;;;;;;5012557;28;20519;-68
2023/04/13 12:00:00;;;;;;;1.03;0.80;;;19.40;44.20;;;;;;5011147;28;20456;-68
2023/04/13 12:02:30;;;;;;;0.83;0.80;;;19.40;44.20;;;;;;5018510;28;20933;-68
2023/04/13 12:04:56;;;;;;;1.17;0.87;;;19.40;44.20;;;;;;5012736;28;20230;-70
2023/04/13 12:07:23;;;;;;;0.83;0.70;;;19.40;44.20;;;;;;5016171;28;20431;-69
2023/04/13 12:09:52;;;;;;;1.20;0.83;;;19.40;44.20;;;;;;5017672;28;20459;-69
2023/04/13 12:12:21;;;;;;;0.90;0.70;;;19.40;44.20;;;;;;5014458;28;20499;-69
2023/04/13 12:14:58;;;;;;;0.80;0.70;;;19.40;44.20;;;;;;5019283;28;20482;-69
2023/04/13 12:17:30;;;;;;;1.00;0.80;;;19.40;44.20;;;;;;5009963;28;20495;-69
2023/04/13 12:19:57;;;;;;;0.80;0.60;;;19.40;44.20;;;;;;5011797;28;20433;-69
2023/04/13 12:22:23;;;;;;;0.80;0.70;;;19.40;44.20;;;;;;5013877;28;20472;-68
2023/04/13 12:24:49;;;;;;;0.70;0.70;;;19.40;44.20;;;;;;5017551;28;20544;-69
2023/04/13 12:27:16;;;;;;;0.90;0.80;;;19.40;44.20;;;;;;5012008;28;20242;-69
2023/04/13 12:29:41;;;;;;;0.70;0.60;;;19.40;44.20;;;;;;5008642;28;20652;-68
2023/04/13 12:32:14;;;;;;;1.00;0.70;;;19.40;44.20;;;;;;5010892;28;20566;-68
2023/04/13 12:34:40;;;;;;;0.73;0.70;;;19.40;44.20;;;;;;5016868;28;20218;-69
2023/04/13 12:37:06;;;;;;;1.27;0.73;;;19.40;44.20;;;;;;5016719;28;20422;-69
2023/04/13 12:39:32;;;;;;;1.30;0.90;;;19.40;44.20;;;;;;5020344;28;21246;-68
2023/04/13 12:41:57;;;;;;;1.47;0.77;;;19.40;44.20;;;;;;5014296;28;20233;-69
2023/04/13 12:44:23;;;;;;;1.00;0.90;;;19.40;44.20;;;;;;5020148;28;20397;-68
2023/04/13 12:46:49;;;;;;;1.00;0.80;;;19.40;44.20;;;;;;5018504;28;20223;-69
2023/04/13 12:49:14;;;;;;;1.10;0.60;;;19.40;44.20;;;;;;5016832;28;20773;-69